createdAt,value
2022-09-15T00:01:09.449Z,14.70
2022-09-15T00:03:37.597Z,14.80
2022-09-15T00:06:05.973Z,14.70
2022-09-15T00:08:34.347Z,14.70
2022-09-15T00:11:06.116Z,14.70
2022-09-15T00:13:34.975Z,14.60
2022-09-15T00:16:03.455Z,14.60
2022-09-15T00:18:33.604Z,14.60
2022-09-15T00:21:01.795Z,14.60
2022-09-15T00:23:29.860Z,14.60
2022-09-15T00:25:57.892Z,14.60
2022-09-15T00:28:26.025Z,14.60
2022-09-15T00:30:54.850Z,14.60
2022-09-15T00:33:23.685Z,14.60
2022-09-15T00:35:53.896Z,14.60
2022-09-15T00:38:22.484Z,14.60
2022-09-15T00:40:51.578Z,14.50
2022-09-15T00:43:21.015Z,14.50
2022-09-15T00:45:50.824Z,14.50
2022-09-15T00:48:20.418Z,14.50
2022-09-15T00:50:51.075Z,14.40
2022-09-15T00:53:21.075Z,14.40
2022-09-15T00:55:49.999Z,14.40
2022-09-15T00:58:21.139Z,14.40
2022-09-15T01:00:52.222Z,14.30
2022-09-15T01:03:20.502Z,14.30
2022-09-15T01:05:53.867Z,14.40
2022-09-15T01:08:26.368Z,14.40
2022-09-15T01:10:54.523Z,14.40
2022-09-15T01:13:22.646Z,14.40
2022-09-15T01:16:01.782Z,14.50
2022-09-15T01:18:33.275Z,14.40
2022-09-15T01:21:09.154Z,14.40
2022-09-15T01:23:53.065Z,14.50
2022-09-15T01:26:37.216Z,14.50
2022-09-15T01:29:24.685Z,14.50
2022-09-15T01:32:15.795Z,14.50
2022-09-15T01:34:46.529Z,14.40
2022-09-15T01:37:16.086Z,14.40
2022-09-15T01:39:46.254Z,14.30
2022-09-15T01:42:16.372Z,14.30
2022-09-15T01:44:47.616Z,14.40
2022-09-15T01:47:17.182Z,14.50
2022-09-15T01:49:47.557Z,14.40
2022-09-15T01:52:17.257Z,14.40
2022-09-15T01:54:49.208Z,14.40
2022-09-15T01:57:21.465Z,14.40
2022-09-15T01:59:52.718Z,14.40
2022-09-15T02:02:24.116Z,14.40
2022-09-15T02:04:53.482Z,14.40
2022-09-15T02:07:26.076Z,14.30
2022-09-15T02:09:57.095Z,14.30
2022-09-15T02:12:34.010Z,14.40
2022-09-15T02:15:08.791Z,14.30
2022-09-15T02:17:39.118Z,14.30
2022-09-15T02:20:10.177Z,14.20
2022-09-15T02:22:39.794Z,14.20
2022-09-15T02:25:09.922Z,14.20
2022-09-15T02:27:42.356Z,14.20
2022-09-15T02:30:13.923Z,14.20
2022-09-15T02:32:47.428Z,14.10
2022-09-15T02:35:16.225Z,14.20
2022-09-15T02:37:44.627Z,14.20
2022-09-15T02:40:12.971Z,14.20
2022-09-15T02:42:42.751Z,14.20
2022-09-15T02:45:12.505Z,14.20
2022-09-15T02:47:40.673Z,14.20
2022-09-15T02:50:09.154Z,14.20
2022-09-15T02:52:37.520Z,14.20
2022-09-15T02:55:05.931Z,14.20
2022-09-15T02:57:34.091Z,14.20
2022-09-15T03:00:14.664Z,14.20
2022-09-15T03:02:45.705Z,14.20
2022-09-15T03:05:14.675Z,14.20
2022-09-15T03:07:42.966Z,14.20
2022-09-15T03:10:12.067Z,14.20
2022-09-15T03:12:40.637Z,14.10
2022-09-15T03:15:09.844Z,14.20
2022-09-15T03:17:38.143Z,14.20
2022-09-15T03:20:08.424Z,14.10
2022-09-15T03:22:36.826Z,14.10
2022-09-15T03:25:05.654Z,14.10
2022-09-15T03:27:33.813Z,14.20
2022-09-15T03:30:01.982Z,14.20
2022-09-15T03:32:30.146Z,14.10
2022-09-15T03:34:58.802Z,14.10
2022-09-15T03:37:28.556Z,14.00
2022-09-15T03:39:57.164Z,14.00
2022-09-15T03:42:26.318Z,14.10
2022-09-15T03:44:54.532Z,14.10
2022-09-15T03:47:22.657Z,14.20
2022-09-15T03:49:50.996Z,14.20
2022-09-15T03:52:19.113Z,14.20
2022-09-15T03:54:49.355Z,14.20
2022-09-15T03:57:17.602Z,14.20
2022-09-15T03:59:45.746Z,14.20
2022-09-15T04:02:14.486Z,14.20
2022-09-15T04:04:43.155Z,14.20
2022-09-15T04:07:11.236Z,14.20
2022-09-15T04:09:39.317Z,14.30
2022-09-15T04:12:10.053Z,14.20
2022-09-15T04:14:38.167Z,14.10
2022-09-15T04:17:06.321Z,14.10
2022-09-15T04:19:34.472Z,14.20
2022-09-15T04:22:02.730Z,14.10
2022-09-15T04:24:30.845Z,14.10
2022-09-15T04:26:58.972Z,14.10
2022-09-15T04:29:28.590Z,14.00
2022-09-15T04:31:56.770Z,14.10
2022-09-15T04:34:24.949Z,14.00
2022-09-15T04:36:53.116Z,14.00
2022-09-15T04:39:21.230Z,14.00
2022-09-15T04:41:49.407Z,14.00
2022-09-15T04:44:17.578Z,14.00
2022-09-15T04:46:47.327Z,14.00
2022-09-15T04:49:15.462Z,14.00
2022-09-15T04:51:43.647Z,14.00
2022-09-15T04:54:11.735Z,14.00
2022-09-15T04:56:39.983Z,14.00
2022-09-15T04:59:14.512Z,13.90
2022-09-15T05:01:43.155Z,13.90
2022-09-15T05:04:12.792Z,13.90
2022-09-15T05:06:40.943Z,13.90
2022-09-15T05:09:10.620Z,13.90
2022-09-15T05:11:39.022Z,13.90
2022-09-15T05:14:08.434Z,13.80
2022-09-15T05:16:36.881Z,13.90
2022-09-15T05:19:05.430Z,13.90
2022-09-15T05:21:35.203Z,14.00
2022-09-15T05:24:03.771Z,14.00
2022-09-15T05:26:31.943Z,14.00
2022-09-15T05:29:00.298Z,14.10
2022-09-15T05:31:29.370Z,14.20
2022-09-15T05:33:57.552Z,14.20
2022-09-15T05:36:26.268Z,14.30
2022-09-15T05:38:56.963Z,14.30
2022-09-15T05:41:26.023Z,14.30
2022-09-15T05:43:55.022Z,14.40
2022-09-15T05:46:26.469Z,14.30
2022-09-15T05:48:58.384Z,14.40
2022-09-15T05:51:26.801Z,14.40
2022-09-15T05:53:57.704Z,14.50
2022-09-15T05:56:27.413Z,14.50
2022-09-15T05:59:14.265Z,14.50
2022-09-15T06:01:43.660Z,14.50
2022-09-15T06:04:12.564Z,14.60
2022-09-15T06:06:40.734Z,14.60
2022-09-15T06:09:10.489Z,14.60
2022-09-15T06:11:38.693Z,14.60
2022-09-15T06:14:07.198Z,14.60
2022-09-15T06:16:35.924Z,14.60
2022-09-15T06:19:04.550Z,14.60
2022-09-15T06:21:33.667Z,14.60
2022-09-15T06:24:08.324Z,14.60
2022-09-15T06:26:38.277Z,14.70
2022-09-15T06:29:26.003Z,14.70
2022-09-15T06:31:54.375Z,14.70
2022-09-15T06:34:23.920Z,14.80
2022-09-15T06:36:52.496Z,14.80
2022-09-15T06:39:20.813Z,14.80
2022-09-15T06:42:02.259Z,14.80
2022-09-15T06:44:31.852Z,14.90
2022-09-15T06:47:00.372Z,14.80
2022-09-15T06:49:29.890Z,14.80
2022-09-15T06:51:58.063Z,14.70
2022-09-15T06:54:26.175Z,14.70
2022-09-15T06:56:55.802Z,14.70
2022-09-15T06:59:24.763Z,14.80
2022-09-15T07:01:53.754Z,14.80
2022-09-15T07:04:22.282Z,14.80
2022-09-15T07:06:51.735Z,14.80
2022-09-15T07:09:19.939Z,14.90
2022-09-15T07:11:48.184Z,14.90
2022-09-15T07:14:17.711Z,14.90
2022-09-15T07:16:45.916Z,15.00
2022-09-15T07:19:14.202Z,15.10
2022-09-15T07:21:42.282Z,15.10
2022-09-15T07:24:10.549Z,15.10
2022-09-15T07:26:39.158Z,15.20
2022-09-15T07:29:07.924Z,15.20
2022-09-15T07:31:39.366Z,15.10
2022-09-15T07:34:08.304Z,15.20
2022-09-15T07:36:36.683Z,15.20
2022-09-15T07:39:05.672Z,15.20
2022-09-15T07:41:33.853Z,15.30
2022-09-15T07:44:01.974Z,15.20
2022-09-15T07:46:31.607Z,15.20
2022-09-15T07:49:03.296Z,15.20
2022-09-15T07:51:31.675Z,15.20
2022-09-15T07:53:59.789Z,15.10
2022-09-15T07:56:27.981Z,15.20
2022-09-15T07:58:56.103Z,15.20
2022-09-15T08:01:24.288Z,15.20
2022-09-15T08:03:53.182Z,15.40
2022-09-15T08:06:23.702Z,15.40
2022-09-15T08:08:56.298Z,15.50
2022-09-15T08:11:27.966Z,15.50
2022-09-15T08:13:56.060Z,15.50
2022-09-15T08:16:25.263Z,15.60
2022-09-15T08:18:54.077Z,15.60
2022-09-15T08:21:24.282Z,15.70
2022-09-15T08:23:53.028Z,15.70
2022-09-15T08:26:21.230Z,15.80
2022-09-15T08:28:49.692Z,15.80
2022-09-15T08:31:18.169Z,15.80
2022-09-15T08:33:48.582Z,16.00
2022-09-15T08:36:16.743Z,16.00
2022-09-15T08:38:47.353Z,16.00
2022-09-15T08:41:17.033Z,16.10
2022-09-15T08:43:47.275Z,16.30
2022-09-15T08:46:17.274Z,16.10
2022-09-15T08:48:48.082Z,16.10
2022-09-15T08:51:21.461Z,16.20
2022-09-15T08:53:53.215Z,16.20
2022-09-15T08:56:22.393Z,16.30
2022-09-15T08:58:50.573Z,16.20
2022-09-15T09:01:24.830Z,16.10
2022-09-15T09:04:08.082Z,16.30
2022-09-15T09:06:43.363Z,16.50
2022-09-15T09:09:20.854Z,16.70
2022-09-15T09:11:55.233Z,16.80
2022-09-15T09:14:26.163Z,16.80
2022-09-15T09:17:00.779Z,16.90
2022-09-15T09:19:36.612Z,16.80
2022-09-15T09:22:08.967Z,16.90
2022-09-15T09:24:40.383Z,16.80
2022-09-15T09:27:12.161Z,16.90
2022-09-15T09:29:41.662Z,16.90
2022-09-15T09:32:17.650Z,16.90
2022-09-15T09:34:50.602Z,16.90
2022-09-15T09:37:18.743Z,17.00
2022-09-15T09:39:49.086Z,17.20
2022-09-15T09:42:18.413Z,17.30
2022-09-15T09:44:46.942Z,17.50
2022-09-15T09:47:15.555Z,17.50
2022-09-15T09:49:45.119Z,17.60
2022-09-15T09:52:13.179Z,17.70
2022-09-15T09:54:42.419Z,17.70
2022-09-15T09:57:28.504Z,17.90
2022-09-15T09:59:56.889Z,18.00
2022-09-15T10:02:25.980Z,17.80
2022-09-15T10:04:55.031Z,17.80
2022-09-15T10:07:24.435Z,17.90
2022-09-15T10:09:54.378Z,17.90
2022-09-15T10:12:26.361Z,17.90
2022-09-15T10:14:55.477Z,17.90
2022-09-15T10:17:24.709Z,18.10
2022-09-15T10:19:54.177Z,18.30
2022-09-15T10:22:24.620Z,18.40
2022-09-15T10:24:53.371Z,18.40
2022-09-15T10:27:26.941Z,18.30
2022-09-15T10:29:57.009Z,18.30
2022-09-15T10:32:26.420Z,18.40
2022-09-15T10:34:59.950Z,18.60
2022-09-15T10:37:29.430Z,18.80
2022-09-15T10:39:59.677Z,18.70
2022-09-15T10:42:38.025Z,18.60
2022-09-15T10:45:15.588Z,18.40
2022-09-15T10:47:50.555Z,18.20
2022-09-15T10:50:23.628Z,18.00
2022-09-15T10:53:03.312Z,17.90
2022-09-15T10:55:52.819Z,17.90
2022-09-15T10:58:29.698Z,17.80
2022-09-15T11:01:02.848Z,17.80
2022-09-15T11:03:48.678Z,17.80
2022-09-15T11:06:19.650Z,18.00
2022-09-15T11:09:05.655Z,18.30
2022-09-15T11:11:41.107Z,18.20
2022-09-15T11:14:16.615Z,17.90
2022-09-15T11:16:51.923Z,17.70
2022-09-15T11:19:32.609Z,17.50
2022-09-15T11:22:03.204Z,17.40
2022-09-15T11:24:36.926Z,17.30
2022-09-15T11:27:06.964Z,17.20
2022-09-15T11:29:37.529Z,17.10
2022-09-15T11:32:10.569Z,17.10
2022-09-15T11:34:41.819Z,17.00
2022-09-15T11:37:13.516Z,16.90
2022-09-15T11:39:45.991Z,16.80
2022-09-15T11:42:16.700Z,16.80
2022-09-15T11:44:46.349Z,16.80
2022-09-15T11:47:26.978Z,16.80
2022-09-15T11:49:57.468Z,16.80
2022-09-15T11:52:36.536Z,16.80
2022-09-15T11:55:10.081Z,16.80
2022-09-15T11:57:43.379Z,17.00
2022-09-15T12:00:13.319Z,17.30
2022-09-15T12:02:45.265Z,17.40
2022-09-15T12:05:15.776Z,17.40
2022-09-15T12:07:47.460Z,17.50
2022-09-15T12:10:16.522Z,17.40
2022-09-15T12:12:46.226Z,17.30
2022-09-15T12:15:16.044Z,17.30
2022-09-15T12:17:49.178Z,17.40
2022-09-15T12:20:20.283Z,17.40
2022-09-15T12:22:51.337Z,17.50
2022-09-15T12:25:21.389Z,17.50
2022-09-15T12:28:04.298Z,17.50
2022-09-15T12:30:39.728Z,17.50
2022-09-15T12:33:22.641Z,17.50
2022-09-15T12:35:52.146Z,17.60
2022-09-15T12:38:20.624Z,17.70
2022-09-15T12:40:57.326Z,17.80
2022-09-15T12:43:26.751Z,17.80
2022-09-15T12:45:56.142Z,17.90
2022-09-15T12:48:25.774Z,17.80
2022-09-15T12:50:56.537Z,17.80
2022-09-15T12:53:26.213Z,17.80
2022-09-15T12:55:56.057Z,17.90
2022-09-15T12:58:27.747Z,17.90
2022-09-15T13:01:18.632Z,17.90
2022-09-15T13:04:02.208Z,17.80
2022-09-15T13:06:33.248Z,17.90
2022-09-15T13:09:16.218Z,18.00
2022-09-15T13:11:46.232Z,18.00
2022-09-15T13:14:20.269Z,18.10
2022-09-15T13:16:52.980Z,18.00
2022-09-15T13:19:23.456Z,17.80
2022-09-15T13:21:58.587Z,17.70
2022-09-15T13:24:37.569Z,17.70
2022-09-15T13:27:07.126Z,17.60
2022-09-15T13:29:40.078Z,17.50
2022-09-15T13:32:12.145Z,17.50
2022-09-15T13:35:04.098Z,17.50
2022-09-15T13:38:12.645Z,17.40
2022-09-15T13:40:53.898Z,17.40
2022-09-15T13:43:40.146Z,17.50
2022-09-15T13:46:14.780Z,17.40
2022-09-15T13:48:50.523Z,17.40
2022-09-15T13:51:25.224Z,17.40
2022-09-15T13:53:55.218Z,17.40
2022-09-15T13:56:27.880Z,17.40
2022-09-15T13:59:05.367Z,17.40
2022-09-15T14:01:39.828Z,17.40
2022-09-15T14:04:11.300Z,17.40
2022-09-15T14:06:41.416Z,17.30
2022-09-15T14:09:10.781Z,17.30
2022-09-15T14:11:41.321Z,17.20
2022-09-15T14:14:11.625Z,17.20
2022-09-15T14:16:40.543Z,17.30
2022-09-15T14:19:24.621Z,17.40
2022-09-15T14:21:58.335Z,17.40
2022-09-15T14:24:28.488Z,17.50
2022-09-15T14:26:58.500Z,17.60
2022-09-15T14:29:26.802Z,17.60
2022-09-15T14:31:55.511Z,17.70
2022-09-15T14:34:25.681Z,17.70
2022-09-15T14:37:00.679Z,17.70
2022-09-15T14:39:28.877Z,17.70
2022-09-15T14:47:20.700Z,17.70
2022-09-15T14:49:49.234Z,17.70
2022-09-15T14:52:25.144Z,17.70
2022-09-15T14:54:56.377Z,17.80
2022-09-15T14:57:30.870Z,17.80
2022-09-15T15:00:04.440Z,17.90
2022-09-15T15:02:40.623Z,17.90
2022-09-15T15:05:10.522Z,17.90
2022-09-15T15:07:39.280Z,17.90
2022-09-15T15:10:08.920Z,17.90
2022-09-15T15:12:41.200Z,17.90
2022-09-15T15:15:12.144Z,17.90
2022-09-15T15:17:44.054Z,17.80
2022-09-15T15:20:18.042Z,17.80
2022-09-15T15:22:46.861Z,17.90
2022-09-15T15:25:27.719Z,18.10
2022-09-15T15:27:57.745Z,18.20
2022-09-15T15:30:37.100Z,18.20
2022-09-15T15:33:06.362Z,18.20
2022-09-15T15:35:35.904Z,18.10
2022-09-15T15:38:06.355Z,18.00
2022-09-15T15:40:36.627Z,18.10
2022-09-15T15:43:08.191Z,18.10
2022-09-15T15:45:37.268Z,18.00
2022-09-15T15:48:05.673Z,17.90
2022-09-15T15:50:33.791Z,17.90
2022-09-15T15:53:02.925Z,17.90
2022-09-15T15:55:37.367Z,17.90
2022-09-15T15:58:07.792Z,17.90
2022-09-15T16:00:38.488Z,17.90
2022-09-15T16:03:08.282Z,17.70
2022-09-15T16:05:36.387Z,17.70
2022-09-15T16:08:05.567Z,17.80
2022-09-15T16:10:45.883Z,17.80
2022-09-15T16:13:19.101Z,17.70
2022-09-15T16:15:47.572Z,17.50
2022-09-15T16:18:15.754Z,17.40
2022-09-15T16:20:43.967Z,17.30
2022-09-15T16:23:16.326Z,17.30
2022-09-15T16:25:48.243Z,17.20
2022-09-15T16:28:17.340Z,17.20
2022-09-15T16:30:47.630Z,17.20
2022-09-15T16:33:16.270Z,17.10
2022-09-15T16:35:46.457Z,17.10
2022-09-15T16:38:14.775Z,17.10
2022-09-15T16:40:42.897Z,17.10
2022-09-15T16:43:13.679Z,17.10
2022-09-15T16:45:41.902Z,17.10
2022-09-15T16:48:12.010Z,17.00
2022-09-15T16:50:50.068Z,17.00
2022-09-15T16:53:26.653Z,17.00
2022-09-15T16:55:56.120Z,17.00
2022-09-15T16:58:24.560Z,16.90
2022-09-15T17:00:53.761Z,16.90
2022-09-15T17:03:24.634Z,16.90
2022-09-15T17:05:53.305Z,16.90
2022-09-15T17:08:23.353Z,16.80
2022-09-15T17:10:53.062Z,16.80
2022-09-15T17:13:25.167Z,16.80
2022-09-15T17:15:56.220Z,16.80
2022-09-15T17:18:26.234Z,16.80
2022-09-15T17:20:57.433Z,16.70
2022-09-15T17:23:27.872Z,16.70
2022-09-15T17:25:58.499Z,16.70
2022-09-15T17:28:27.846Z,16.60
2022-09-15T17:30:58.264Z,16.60
2022-09-15T17:33:29.062Z,16.60
2022-09-15T17:35:57.712Z,16.60
2022-09-15T17:38:25.799Z,16.50
2022-09-15T17:40:55.372Z,16.50
2022-09-15T17:43:25.294Z,16.50
2022-09-15T17:45:54.149Z,16.40
2022-09-15T17:48:22.435Z,16.40
2022-09-15T17:50:52.431Z,16.40
2022-09-15T17:53:23.234Z,16.40
2022-09-15T17:55:51.857Z,16.40
2022-09-15T17:58:20.032Z,16.40
2022-09-15T18:00:48.871Z,16.30
2022-09-15T18:03:20.765Z,16.40
2022-09-15T18:05:48.985Z,16.40
2022-09-15T18:08:18.876Z,16.30
2022-09-15T18:10:47.081Z,16.30
2022-09-15T18:13:16.425Z,16.30
2022-09-15T18:15:44.791Z,16.30
2022-09-15T18:18:14.201Z,16.30
2022-09-15T18:20:42.556Z,16.20
2022-09-15T18:23:15.222Z,16.20
2022-09-15T18:25:44.935Z,16.20
2022-09-15T18:28:13.414Z,16.10
2022-09-15T18:30:42.233Z,16.10
2022-09-15T18:33:13.841Z,16.10
2022-09-15T18:35:42.255Z,16.00
2022-09-15T18:38:10.892Z,16.00
2022-09-15T18:40:39.843Z,16.10
2022-09-15T18:43:09.381Z,16.10
2022-09-15T18:45:38.897Z,16.10
2022-09-15T18:48:12.080Z,16.10
2022-09-15T18:50:41.603Z,16.10
2022-09-15T18:53:10.164Z,16.00
2022-09-15T18:55:38.174Z,16.10
2022-09-15T18:58:06.831Z,16.10
2022-09-15T19:00:37.341Z,16.10
2022-09-15T19:03:07.595Z,16.10
2022-09-15T19:05:36.384Z,16.10
2022-09-15T19:08:05.735Z,16.10
2022-09-15T19:10:34.002Z,16.10
2022-09-15T19:13:05.697Z,16.10
2022-09-15T19:15:35.324Z,16.10
2022-09-15T19:18:05.303Z,16.10
2022-09-15T19:20:34.255Z,16.10
2022-09-15T19:23:02.536Z,16.00
2022-09-15T19:25:30.651Z,15.90
2022-09-15T19:28:00.543Z,15.80
2022-09-15T19:30:29.514Z,15.70
2022-09-15T19:32:57.986Z,15.70
2022-09-15T19:35:27.994Z,15.60
2022-09-15T19:37:57.571Z,15.60
2022-09-15T19:40:26.629Z,15.60
2022-09-15T19:42:56.997Z,15.60
2022-09-15T19:45:25.295Z,15.60
2022-09-15T19:47:53.624Z,15.60
2022-09-15T19:50:22.111Z,15.60
2022-09-15T19:52:55.262Z,15.60
2022-09-15T19:55:28.781Z,15.60
2022-09-15T19:57:56.980Z,15.60
2022-09-15T20:00:25.083Z,15.50
2022-09-15T20:02:53.849Z,15.50
2022-09-15T20:05:22.260Z,15.50
2022-09-15T20:07:53.429Z,15.50
2022-09-15T20:10:23.163Z,15.50
2022-09-15T20:12:52.012Z,15.50
2022-09-15T20:15:20.995Z,15.50
2022-09-15T20:17:49.031Z,15.50
2022-09-15T20:20:17.995Z,15.50
2022-09-15T20:22:48.680Z,15.30
2022-09-15T20:25:18.825Z,15.30
2022-09-15T20:27:47.953Z,15.20
2022-09-15T20:30:16.840Z,15.20
2022-09-15T20:32:45.504Z,15.10
2022-09-15T20:35:13.984Z,15.10
2022-09-15T20:37:42.365Z,15.10
2022-09-15T20:40:11.205Z,15.10
2022-09-15T20:42:40.982Z,15.10
2022-09-15T20:45:27.893Z,15.10
2022-09-15T20:47:56.396Z,15.10
2022-09-15T20:50:26.352Z,15.10
2022-09-15T20:52:56.003Z,15.10
2022-09-15T20:55:25.961Z,15.00
2022-09-15T20:57:55.961Z,15.10
2022-09-15T21:00:27.149Z,15.10
2022-09-15T21:02:57.736Z,15.00
2022-09-15T21:05:27.243Z,15.00
2022-09-15T21:07:55.567Z,15.00
2022-09-15T21:10:25.160Z,15.10
2022-09-15T21:12:53.258Z,15.10
2022-09-15T21:15:22.922Z,15.00
2022-09-15T21:17:51.143Z,15.00
2022-09-15T21:20:19.183Z,15.00
2022-09-15T21:22:47.378Z,15.00
2022-09-15T21:25:15.605Z,15.00
2022-09-15T21:27:46.296Z,15.00
2022-09-15T21:30:14.807Z,15.00
2022-09-15T21:32:44.437Z,14.90
2022-09-15T21:35:12.617Z,14.80
2022-09-15T21:37:40.796Z,14.60
2022-09-15T21:40:11.038Z,14.60
2022-09-15T21:42:39.516Z,14.50
2022-09-15T21:45:08.717Z,14.30
2022-09-15T21:47:36.858Z,14.30
2022-09-15T21:50:07.693Z,14.10
2022-09-15T21:52:36.247Z,14.00
2022-09-15T21:55:04.327Z,13.90
2022-09-15T21:57:32.447Z,13.80
2022-09-15T22:00:00.527Z,13.80
2022-09-15T22:02:28.701Z,13.80
2022-09-15T22:04:57.004Z,13.80
2022-09-15T22:07:26.554Z,13.70
2022-09-15T22:09:54.797Z,13.60
2022-09-15T22:12:24.118Z,13.60
2022-09-15T22:14:52.327Z,13.60
2022-09-15T22:17:20.457Z,13.60
2022-09-15T22:19:48.571Z,13.60
2022-09-15T22:22:16.687Z,13.60
2022-09-15T22:24:46.303Z,13.70
2022-09-15T22:27:14.483Z,13.70
2022-09-15T22:29:42.583Z,13.70
2022-09-15T22:32:10.880Z,13.70
2022-09-15T22:34:39.070Z,13.60
2022-09-15T22:37:08.357Z,13.60
2022-09-15T22:39:58.016Z,13.60
2022-09-15T22:42:26.517Z,13.60
2022-09-15T22:44:54.709Z,13.60
2022-09-15T22:47:22.907Z,13.60
2022-09-15T22:49:51.003Z,13.60
2022-09-15T22:52:19.777Z,13.60
2022-09-15T22:54:48.947Z,13.50
2022-09-15T22:57:17.346Z,13.50
2022-09-15T22:59:49.044Z,13.60
2022-09-15T23:02:18.740Z,13.50
2022-09-15T23:04:46.914Z,13.50
2022-09-15T23:07:15.433Z,13.50
2022-09-15T23:09:44.886Z,13.50
2022-09-15T23:12:13.066Z,13.50
2022-09-15T23:14:41.253Z,13.40
2022-09-15T23:17:10.876Z,13.40
2022-09-15T23:19:39.289Z,13.40
2022-09-15T23:22:07.548Z,13.40
2022-09-15T23:24:35.736Z,13.30
2022-09-15T23:27:04.627Z,13.30
2022-09-15T23:29:32.757Z,13.30
2022-09-15T23:32:00.986Z,13.30
2022-09-15T23:34:32.937Z,13.30
2022-09-15T23:37:01.496Z,13.30
2022-09-15T23:39:30.097Z,13.30
2022-09-15T23:41:58.288Z,13.30
2022-09-15T23:44:26.448Z,13.30
2022-09-15T23:46:54.617Z,13.40
2022-09-15T23:49:22.897Z,13.40
2022-09-15T23:51:52.400Z,13.40
2022-09-15T23:54:20.517Z,13.40
2022-09-15T23:56:48.696Z,13.30
2022-09-15T23:59:16.804Z,13.30
